Ana Sayfa
METAR-TAF:

METAR-TAF

Havaalanları :

Gillespie County Airport

Fredericksburg, Teksas, Amerika Birleşik Devletleri

Enlem: 30-14-37N, Boylam: 098-54-34W, yükseklik: 517 m

Güncel hava durumu gözlemi

Rapor saat 23:15 UTC de 30 dakika önce yapıldı.
Rüzgar kuzeydoğudan 7 kt
Sıcaklık 11°C
Nem 24%
Basınç 1030 hPa
Görüş mesafesi: 16.1 km
7500 ft yükseklikte parçalı bulutlu
10000 ft yükseklikte parçalı bulutlu

METAR: KT82 192315Z AUTO 05007KT 10SM SCT075 SCT100 11/M09 A3043 RMK AO2 T01111086

Saat: 17:45 (23:45 UTC)


TAF: eksik

4.000'den fazla havaalanı için hava durumu gözlemleri ve tahminleri (METAR ve TAF raporları).

Kullanılabilir istasyonlar harita üzerinde sarı ve kırmızı noktalarla gösterilir.

İstasyonun adını görmek için fareyi noktanın üzerinde gezdirin.

Sonrasında hava gözlem ve tahminlerini görmek için tıklayın.

Haritayı değiştirmek için: yaklaştırmak için siyah artı işaretli yeşil düğmeye ve uzaklaştırmak için de eksi işaretli düğmeye hızla tıklayın; bitişik haritalar için yeşil okları kullanın.


METAR-TAF: